sensor_id;sensor_type;location;lat;lon;timestamp;P1;durP1;ratioP1;P2;durP2;ratioP2
11139;SDS011;5624;49.388;11.350;2024-02-23T00:01:49;0.80;;;0.80;;
11139;SDS011;5624;49.388;11.350;2024-02-23T00:04:15;0.73;;;0.73;;
11139;SDS011;5624;49.388;11.350;2024-02-23T00:06:41;1.03;;;0.80;;
11139;SDS011;5624;49.388;11.350;2024-02-23T00:09:06;1.10;;;0.80;;
11139;SDS011;5624;49.388;11.350;2024-02-23T00:11:32;1.87;;;0.90;;
11139;SDS011;5624;49.388;11.350;2024-02-23T00:14:04;1.50;;;0.80;;
11139;SDS011;5624;49.388;11.350;2024-02-23T00:16:30;1.07;;;0.97;;
11139;SDS011;5624;49.388;11.350;2024-02-23T00:18:55;0.83;;;0.80;;
11139;SDS011;5624;49.388;11.350;2024-02-23T00:21:21;1.27;;;0.80;;
11139;SDS011;5624;49.388;11.350;2024-02-23T00:23:46;0.93;;;0.77;;
11139;SDS011;5624;49.388;11.350;2024-02-23T00:26:12;0.60;;;0.60;;
11139;SDS011;5624;49.388;11.350;2024-02-23T00:28:37;0.80;;;0.80;;
11139;SDS011;5624;49.388;11.350;2024-02-23T00:31:03;0.90;;;0.70;;
11139;SDS011;5624;49.388;11.350;2024-02-23T00:33:28;0.97;;;0.70;;
11139;SDS011;5624;49.388;11.350;2024-02-23T00:35:54;1.70;;;0.60;;
11139;SDS011;5624;49.388;11.350;2024-02-23T00:38:20;1.00;;;0.70;;
11139;SDS011;5624;49.388;11.350;2024-02-23T00:40:46;1.33;;;0.70;;
11139;SDS011;5624;49.388;11.350;2024-02-23T00:43:11;0.53;;;0.53;;
11139;SDS011;5624;49.388;11.350;2024-02-23T00:45:37;0.80;;;0.70;;
11139;SDS011;5624;49.388;11.350;2024-02-23T00:48:02;1.00;;;0.70;;
11139;SDS011;5624;49.388;11.350;2024-02-23T00:50:28;0.70;;;0.60;;
11139;SDS011;5624;49.388;11.350;2024-02-23T00:52:54;0.80;;;0.60;;
11139;SDS011;5624;49.388;11.350;2024-02-23T00:55:19;0.83;;;0.70;;
11139;SDS011;5624;49.388;11.350;2024-02-23T00:57:45;0.67;;;0.60;;
11139;SDS011;5624;49.388;11.350;2024-02-23T01:00:11;0.50;;;0.50;;
11139;SDS011;5624;49.388;11.350;2024-02-23T01:02:37;0.70;;;0.70;;
11139;SDS011;5624;49.388;11.350;2024-02-23T01:05:03;0.53;;;0.53;;
11139;SDS011;5624;49.388;11.350;2024-02-23T01:07:29;0.70;;;0.70;;
11139;SDS011;5624;49.388;11.350;2024-02-23T01:09:55;0.53;;;0.53;;
11139;SDS011;5624;49.388;11.350;2024-02-23T01:12:21;0.67;;;0.60;;
11139;SDS011;5624;49.388;11.350;2024-02-23T01:14:46;0.60;;;0.60;;
11139;SDS011;5624;49.388;11.350;2024-02-23T01:17:13;0.70;;;0.70;;
11139;SDS011;5624;49.388;11.350;2024-02-23T01:19:40;1.03;;;0.60;;
11139;SDS011;5624;49.388;11.350;2024-02-23T01:22:07;0.50;;;0.50;;
11139;SDS011;5624;49.388;11.350;2024-02-23T01:24:32;0.57;;;0.57;;
11139;SDS011;5624;49.388;11.350;2024-02-23T01:26:58;0.60;;;0.60;;
11139;SDS011;5624;49.388;11.350;2024-02-23T01:29:24;0.50;;;0.50;;
11139;SDS011;5624;49.388;11.350;2024-02-23T01:31:51;1.30;;;0.60;;
11139;SDS011;5624;49.388;11.350;2024-02-23T01:34:16;1.57;;;0.60;;
11139;SDS011;5624;49.388;11.350;2024-02-23T01:36:42;0.57;;;0.57;;
11139;SDS011;5624;49.388;11.350;2024-02-23T01:39:09;0.70;;;0.70;;
11139;SDS011;5624;49.388;11.350;2024-02-23T01:41:36;1.07;;;0.73;;
11139;SDS011;5624;49.388;11.350;2024-02-23T01:44:01;1.27;;;0.80;;
11139;SDS011;5624;49.388;11.350;2024-02-23T01:46:27;1.03;;;0.70;;
11139;SDS011;5624;49.388;11.350;2024-02-23T01:48:53;0.53;;;0.53;;
11139;SDS011;5624;49.388;11.350;2024-02-23T01:51:19;0.70;;;0.70;;
11139;SDS011;5624;49.388;11.350;2024-02-23T01:53:45;0.93;;;0.80;;
11139;SDS011;5624;49.388;11.350;2024-02-23T01:56:10;0.63;;;0.60;;
11139;SDS011;5624;49.388;11.350;2024-02-23T01:58:42;1.10;;;0.63;;
11139;SDS011;5624;49.388;11.350;2024-02-23T02:01:08;0.60;;;0.53;;
11139;SDS011;5624;49.388;11.350;2024-02-23T02:03:34;0.93;;;0.70;;
11139;SDS011;5624;49.388;11.350;2024-02-23T02:06:00;1.70;;;0.80;;
11139;SDS011;5624;49.388;11.350;2024-02-23T02:08:26;0.70;;;0.70;;
11139;SDS011;5624;49.388;11.350;2024-02-23T02:10:52;0.70;;;0.70;;
11139;SDS011;5624;49.388;11.350;2024-02-23T02:13:17;0.77;;;0.77;;
11139;SDS011;5624;49.388;11.350;2024-02-23T02:15:43;0.60;;;0.60;;
11139;SDS011;5624;49.388;11.350;2024-02-23T02:18:09;0.77;;;0.53;;
11139;SDS011;5624;49.388;11.350;2024-02-23T02:20:35;0.60;;;0.60;;
11139;SDS011;5624;49.388;11.350;2024-02-23T02:23:01;0.60;;;0.60;;
11139;SDS011;5624;49.388;11.350;2024-02-23T02:25:27;0.73;;;0.70;;
11139;SDS011;5624;49.388;11.350;2024-02-23T02:27:52;2.53;;;0.73;;
11139;SDS011;5624;49.388;11.350;2024-02-23T02:30:18;2.07;;;0.90;;
11139;SDS011;5624;49.388;11.350;2024-02-23T02:32:44;0.80;;;0.80;;
11139;SDS011;5624;49.388;11.350;2024-02-23T02:35:10;1.03;;;0.73;;
11139;SDS011;5624;49.388;11.350;2024-02-23T02:37:37;1.13;;;0.70;;
11139;SDS011;5624;49.388;11.350;2024-02-23T02:40:03;0.80;;;0.67;;
11139;SDS011;5624;49.388;11.350;2024-02-23T02:42:29;1.43;;;0.87;;
11139;SDS011;5624;49.388;11.350;2024-02-23T02:44:54;1.90;;;1.10;;
11139;SDS011;5624;49.388;11.350;2024-02-23T02:47:20;1.10;;;1.00;;
11139;SDS011;5624;49.388;11.350;2024-02-23T02:49:45;0.73;;;0.70;;
11139;SDS011;5624;49.388;11.350;2024-02-23T02:52:11;1.17;;;0.80;;
11139;SDS011;5624;49.388;11.350;2024-02-23T02:54:36;1.17;;;0.80;;
11139;SDS011;5624;49.388;11.350;2024-02-23T02:57:02;1.80;;;1.00;;
11139;SDS011;5624;49.388;11.350;2024-02-23T02:59:27;0.80;;;0.70;;
11139;SDS011;5624;49.388;11.350;2024-02-23T03:01:53;2.77;;;1.10;;
11139;SDS011;5624;49.388;11.350;2024-02-23T03:04:18;1.00;;;0.80;;
11139;SDS011;5624;49.388;11.350;2024-02-23T03:06:44;1.50;;;0.90;;
11139;SDS011;5624;49.388;11.350;2024-02-23T03:09:10;1.10;;;0.93;;
11139;SDS011;5624;49.388;11.350;2024-02-23T03:11:35;2.50;;;0.97;;
11139;SDS011;5624;49.388;11.350;2024-02-23T03:14:01;1.30;;;0.80;;
11139;SDS011;5624;49.388;11.350;2024-02-23T03:16:28;2.43;;;1.10;;
11139;SDS011;5624;49.388;11.350;2024-02-23T03:18:55;2.40;;;1.00;;
11139;SDS011;5624;49.388;11.350;2024-02-23T03:21:21;2.90;;;1.20;;
11139;SDS011;5624;49.388;11.350;2024-02-23T03:23:46;1.63;;;1.10;;
11139;SDS011;5624;49.388;11.350;2024-02-23T03:26:12;2.50;;;1.20;;
11139;SDS011;5624;49.388;11.350;2024-02-23T03:28:37;2.80;;;1.10;;
11139;SDS011;5624;49.388;11.350;2024-02-23T03:31:03;2.00;;;1.20;;
11139;SDS011;5624;49.388;11.350;2024-02-23T03:33:28;1.37;;;1.00;;
11139;SDS011;5624;49.388;11.350;2024-02-23T03:35:54;2.37;;;0.97;;
11139;SDS011;5624;49.388;11.350;2024-02-23T03:38:20;2.83;;;1.00;;
11139;SDS011;5624;49.388;11.350;2024-02-23T03:40:46;2.83;;;1.00;;
11139;SDS011;5624;49.388;11.350;2024-02-23T03:43:11;3.20;;;1.30;;
11139;SDS011;5624;49.388;11.350;2024-02-23T03:45:37;1.40;;;0.90;;
11139;SDS011;5624;49.388;11.350;2024-02-23T03:48:03;1.97;;;1.00;;
11139;SDS011;5624;49.388;11.350;2024-02-23T03:50:29;4.23;;;1.20;;
11139;SDS011;5624;49.388;11.350;2024-02-23T03:52:55;2.13;;;1.27;;
11139;SDS011;5624;49.388;11.350;2024-02-23T03:55:21;4.40;;;1.23;;
11139;SDS011;5624;49.388;11.350;2024-02-23T03:57:47;2.67;;;1.03;;
11139;SDS011;5624;49.388;11.350;2024-02-23T04:00:13;1.87;;;1.20;;
11139;SDS011;5624;49.388;11.350;2024-02-23T04:02:39;1.70;;;1.00;;
11139;SDS011;5624;49.388;11.350;2024-02-23T04:05:05;2.63;;;1.07;;
11139;SDS011;5624;49.388;11.350;2024-02-23T04:07:31;1.87;;;1.10;;
11139;SDS011;5624;49.388;11.350;2024-02-23T04:09:57;2.23;;;1.03;;
11139;SDS011;5624;49.388;11.350;2024-02-23T04:12:23;2.17;;;1.27;;
11139;SDS011;5624;49.388;11.350;2024-02-23T04:14:49;4.43;;;1.40;;
11139;SDS011;5624;49.388;11.350;2024-02-23T04:17:15;3.47;;;1.20;;
11139;SDS011;5624;49.388;11.350;2024-02-23T04:19:41;2.73;;;1.20;;
11139;SDS011;5624;49.388;11.350;2024-02-23T04:22:08;2.47;;;1.10;;
11139;SDS011;5624;49.388;11.350;2024-02-23T04:24:35;2.67;;;1.10;;
11139;SDS011;5624;49.388;11.350;2024-02-23T04:27:03;3.77;;;1.40;;
11139;SDS011;5624;49.388;11.350;2024-02-23T04:29:29;1.90;;;1.17;;
11139;SDS011;5624;49.388;11.350;2024-02-23T04:31:54;1.20;;;1.10;;
11139;SDS011;5624;49.388;11.350;2024-02-23T04:34:20;2.73;;;1.20;;
11139;SDS011;5624;49.388;11.350;2024-02-23T04:36:46;3.47;;;1.50;;
11139;SDS011;5624;49.388;11.350;2024-02-23T04:39:11;2.60;;;1.30;;
11139;SDS011;5624;49.388;11.350;2024-02-23T04:41:37;3.63;;;1.40;;
11139;SDS011;5624;49.388;11.350;2024-02-23T04:44:02;2.83;;;1.33;;
11139;SDS011;5624;49.388;11.350;2024-02-23T04:46:28;3.63;;;1.67;;
11139;SDS011;5624;49.388;11.350;2024-02-23T04:48:54;3.67;;;1.13;;
11139;SDS011;5624;49.388;11.350;2024-02-23T04:51:20;1.30;;;1.13;;
11139;SDS011;5624;49.388;11.350;2024-02-23T04:53:47;3.43;;;1.43;;
11139;SDS011;5624;49.388;11.350;2024-02-23T04:56:13;3.33;;;1.37;;
11139;SDS011;5624;49.388;11.350;2024-02-23T04:58:38;3.03;;;1.40;;
11139;SDS011;5624;49.388;11.350;2024-02-23T05:01:06;4.50;;;1.50;;
11139;SDS011;5624;49.388;11.350;2024-02-23T05:03:31;2.67;;;1.40;;
11139;SDS011;5624;49.388;11.350;2024-02-23T05:05:57;3.10;;;1.50;;
11139;SDS011;5624;49.388;11.350;2024-02-23T05:08:23;5.13;;;1.50;;
11139;SDS011;5624;49.388;11.350;2024-02-23T05:10:49;3.33;;;1.50;;
11139;SDS011;5624;49.388;11.350;2024-02-23T05:13:15;2.27;;;1.37;;
11139;SDS011;5624;49.388;11.350;2024-02-23T05:15:41;3.50;;;1.30;;
11139;SDS011;5624;49.388;11.350;2024-02-23T05:18:07;5.83;;;1.40;;
11139;SDS011;5624;49.388;11.350;2024-02-23T05:20:32;5.47;;;1.60;;
11139;SDS011;5624;49.388;11.350;2024-02-23T05:22:58;3.43;;;1.50;;
11139;SDS011;5624;49.388;11.350;2024-02-23T05:25:23;3.77;;;1.70;;
11139;SDS011;5624;49.388;11.350;2024-02-23T05:27:50;3.63;;;1.60;;
11139;SDS011;5624;49.388;11.350;2024-02-23T05:30:16;5.63;;;1.80;;
11139;SDS011;5624;49.388;11.350;2024-02-23T05:32:42;3.23;;;1.60;;
11139;SDS011;5624;49.388;11.350;2024-02-23T05:35:07;4.37;;;1.40;;
11139;SDS011;5624;49.388;11.350;2024-02-23T05:37:33;4.37;;;1.50;;
11139;SDS011;5624;49.388;11.350;2024-02-23T05:39:59;3.73;;;1.60;;
11139;SDS011;5624;49.388;11.350;2024-02-23T05:42:28;5.50;;;1.80;;
11139;SDS011;5624;49.388;11.350;2024-02-23T05:44:54;4.83;;;1.80;;
11139;SDS011;5624;49.388;11.350;2024-02-23T05:47:19;2.20;;;1.53;;
11139;SDS011;5624;49.388;11.350;2024-02-23T05:49:46;3.33;;;1.53;;
11139;SDS011;5624;49.388;11.350;2024-02-23T05:52:12;4.77;;;1.70;;
11139;SDS011;5624;49.388;11.350;2024-02-23T05:54:37;5.23;;;1.77;;
11139;SDS011;5624;49.388;11.350;2024-02-23T05:57:03;4.07;;;1.67;;
11139;SDS011;5624;49.388;11.350;2024-02-23T05:59:29;5.27;;;1.53;;
11139;SDS011;5624;49.388;11.350;2024-02-23T06:01:55;2.10;;;1.43;;
11139;SDS011;5624;49.388;11.350;2024-02-23T06:04:22;2.70;;;1.60;;
11139;SDS011;5624;49.388;11.350;2024-02-23T06:06:48;2.60;;;1.30;;
11139;SDS011;5624;49.388;11.350;2024-02-23T06:09:14;3.40;;;1.43;;
11139;SDS011;5624;49.388;11.350;2024-02-23T06:11:39;3.17;;;1.40;;
11139;SDS011;5624;49.388;11.350;2024-02-23T06:14:05;4.10;;;1.70;;
11139;SDS011;5624;49.388;11.350;2024-02-23T06:16:30;2.20;;;1.20;;
11139;SDS011;5624;49.388;11.350;2024-02-23T06:18:56;2.30;;;1.47;;
11139;SDS011;5624;49.388;11.350;2024-02-23T06:21:23;5.30;;;1.50;;
11139;SDS011;5624;49.388;11.350;2024-02-23T06:23:48;2.27;;;1.40;;
11139;SDS011;5624;49.388;11.350;2024-02-23T06:26:14;2.83;;;1.50;;
11139;SDS011;5624;49.388;11.350;2024-02-23T06:28:40;2.90;;;1.20;;
11139;SDS011;5624;49.388;11.350;2024-02-23T06:31:08;3.50;;;1.40;;
11139;SDS011;5624;49.388;11.350;2024-02-23T06:33:34;3.37;;;1.53;;
11139;SDS011;5624;49.388;11.350;2024-02-23T06:36:00;4.03;;;1.50;;
11139;SDS011;5624;49.388;11.350;2024-02-23T06:38:26;2.03;;;1.13;;
11139;SDS011;5624;49.388;11.350;2024-02-23T06:40:53;4.03;;;1.60;;
11139;SDS011;5624;49.388;11.350;2024-02-23T06:43:20;2.87;;;1.30;;
11139;SDS011;5624;49.388;11.350;2024-02-23T06:45:45;3.23;;;1.33;;
11139;SDS011;5624;49.388;11.350;2024-02-23T06:48:11;3.57;;;1.40;;
11139;SDS011;5624;49.388;11.350;2024-02-23T06:50:36;1.83;;;1.30;;
11139;SDS011;5624;49.388;11.350;2024-02-23T06:53:02;3.57;;;1.63;;
11139;SDS011;5624;49.388;11.350;2024-02-23T06:55:27;2.70;;;1.60;;
11139;SDS011;5624;49.388;11.350;2024-02-23T06:57:53;5.50;;;2.67;;
11139;SDS011;5624;49.388;11.350;2024-02-23T07:00:20;4.53;;;2.40;;
11139;SDS011;5624;49.388;11.350;2024-02-23T07:02:46;4.27;;;2.47;;
11139;SDS011;5624;49.388;11.350;2024-02-23T07:05:12;2.70;;;1.57;;
11139;SDS011;5624;49.388;11.350;2024-02-23T07:07:38;4.27;;;1.50;;
11139;SDS011;5624;49.388;11.350;2024-02-23T07:10:05;2.00;;;1.50;;
11139;SDS011;5624;49.388;11.350;2024-02-23T07:12:31;2.60;;;1.80;;
11139;SDS011;5624;49.388;11.350;2024-02-23T07:14:57;3.53;;;1.60;;
11139;SDS011;5624;49.388;11.350;2024-02-23T07:17:23;2.50;;;1.20;;
11139;SDS011;5624;49.388;11.350;2024-02-23T07:19:48;2.50;;;1.57;;
11139;SDS011;5624;49.388;11.350;2024-02-23T07:22:15;4.23;;;1.30;;
11139;SDS011;5624;49.388;11.350;2024-02-23T07:24:43;2.80;;;1.33;;
11139;SDS011;5624;49.388;11.350;2024-02-23T07:27:09;1.97;;;1.37;;
11139;SDS011;5624;49.388;11.350;2024-02-23T07:29:34;1.33;;;1.20;;
11139;SDS011;5624;49.388;11.350;2024-02-23T07:32:00;2.70;;;1.57;;
11139;SDS011;5624;49.388;11.350;2024-02-23T07:34:26;2.03;;;1.50;;
11139;SDS011;5624;49.388;11.350;2024-02-23T07:36:51;2.97;;;1.33;;
11139;SDS011;5624;49.388;11.350;2024-02-23T07:39:17;2.23;;;1.40;;
11139;SDS011;5624;49.388;11.350;2024-02-23T07:41:43;3.47;;;1.50;;
11139;SDS011;5624;49.388;11.350;2024-02-23T07:44:09;1.87;;;1.27;;
11139;SDS011;5624;49.388;11.350;2024-02-23T07:46:35;2.17;;;1.50;;
11139;SDS011;5624;49.388;11.350;2024-02-23T07:49:00;3.70;;;1.90;;
11139;SDS011;5624;49.388;11.350;2024-02-23T07:51:26;4.03;;;1.80;;
11139;SDS011;5624;49.388;11.350;2024-02-23T07:53:51;2.60;;;1.40;;
11139;SDS011;5624;49.388;11.350;2024-02-23T07:56:17;5.00;;;1.20;;
11139;SDS011;5624;49.388;11.350;2024-02-23T07:58:42;3.13;;;1.23;;
11139;SDS011;5624;49.388;11.350;2024-02-23T08:01:08;1.87;;;1.40;;
11139;SDS011;5624;49.388;11.350;2024-02-23T08:03:34;2.67;;;1.60;;
11139;SDS011;5624;49.388;11.350;2024-02-23T08:05:59;2.53;;;1.37;;
11139;SDS011;5624;49.388;11.350;2024-02-23T08:08:26;3.00;;;1.57;;
11139;SDS011;5624;49.388;11.350;2024-02-23T08:10:52;2.10;;;1.30;;
11139;SDS011;5624;49.388;11.350;2024-02-23T08:13:18;1.73;;;1.40;;
11139;SDS011;5624;49.388;11.350;2024-02-23T08:15:44;3.70;;;1.53;;
11139;SDS011;5624;49.388;11.350;2024-02-23T08:18:09;2.73;;;1.60;;
11139;SDS011;5624;49.388;11.350;2024-02-23T08:20:35;2.73;;;1.40;;
11139;SDS011;5624;49.388;11.350;2024-02-23T08:23:01;4.00;;;1.70;;
11139;SDS011;5624;49.388;11.350;2024-02-23T08:25:27;2.57;;;1.50;;
11139;SDS011;5624;49.388;11.350;2024-02-23T08:27:54;2.30;;;1.30;;
11139;SDS011;5624;49.388;11.350;2024-02-23T08:30:21;2.90;;;1.50;;
11139;SDS011;5624;49.388;11.350;2024-02-23T08:32:46;2.87;;;1.60;;
11139;SDS011;5624;49.388;11.350;2024-02-23T08:35:13;2.63;;;1.20;;
11139;SDS011;5624;49.388;11.350;2024-02-23T08:37:40;2.40;;;1.33;;
11139;SDS011;5624;49.388;11.350;2024-02-23T08:40:07;3.53;;;1.37;;
11139;SDS011;5624;49.388;11.350;2024-02-23T08:42:33;2.80;;;1.27;;
11139;SDS011;5624;49.388;11.350;2024-02-23T08:44:58;4.83;;;1.30;;
11139;SDS011;5624;49.388;11.350;2024-02-23T08:47:24;4.40;;;1.40;;
11139;SDS011;5624;49.388;11.350;2024-02-23T08:49:52;2.77;;;1.47;;
11139;SDS011;5624;49.388;11.350;2024-02-23T08:52:18;3.43;;;1.43;;
11139;SDS011;5624;49.388;11.350;2024-02-23T08:54:44;3.23;;;1.33;;
11139;SDS011;5624;49.388;11.350;2024-02-23T08:57:09;3.97;;;1.43;;
11139;SDS011;5624;49.388;11.350;2024-02-23T08:59:35;2.70;;;1.30;;
11139;SDS011;5624;49.388;11.350;2024-02-23T09:02:01;2.13;;;1.40;;
11139;SDS011;5624;49.388;11.350;2024-02-23T09:04:27;3.03;;;1.50;;
11139;SDS011;5624;49.388;11.350;2024-02-23T09:06:53;4.70;;;1.70;;
11139;SDS011;5624;49.388;11.350;2024-02-23T09:09:19;3.87;;;1.40;;
11139;SDS011;5624;49.388;11.350;2024-02-23T09:11:44;1.57;;;1.30;;
11139;SDS011;5624;49.388;11.350;2024-02-23T09:14:10;2.23;;;1.33;;
11139;SDS011;5624;49.388;11.350;2024-02-23T09:16:35;2.67;;;1.40;;
11139;SDS011;5624;49.388;11.350;2024-02-23T09:19:01;4.20;;;1.70;;
11139;SDS011;5624;49.388;11.350;2024-02-23T09:21:26;1.40;;;1.20;;
11139;SDS011;5624;49.388;11.350;2024-02-23T09:23:52;1.87;;;1.23;;
11139;SDS011;5624;49.388;11.350;2024-02-23T09:26:17;1.83;;;1.33;;
11139;SDS011;5624;49.388;11.350;2024-02-23T09:28:43;2.23;;;1.30;;
11139;SDS011;5624;49.388;11.350;2024-02-23T09:31:10;2.90;;;1.33;;
11139;SDS011;5624;49.388;11.350;2024-02-23T09:33:36;4.33;;;1.60;;
11139;SDS011;5624;49.388;11.350;2024-02-23T09:36:02;3.23;;;1.37;;
11139;SDS011;5624;49.388;11.350;2024-02-23T09:38:27;3.30;;;1.13;;
11139;SDS011;5624;49.388;11.350;2024-02-23T09:40:53;1.53;;;1.23;;
11139;SDS011;5624;49.388;11.350;2024-02-23T09:43:20;2.50;;;1.57;;
11139;SDS011;5624;49.388;11.350;2024-02-23T09:45:52;4.27;;;1.70;;
11139;SDS011;5624;49.388;11.350;2024-02-23T09:48:21;1.67;;;1.23;;
11139;SDS011;5624;49.388;11.350;2024-02-23T09:50:50;2.73;;;1.50;;
11139;SDS011;5624;49.388;11.350;2024-02-23T09:53:17;2.10;;;1.33;;
11139;SDS011;5624;49.388;11.350;2024-02-23T09:55:45;3.40;;;1.40;;
11139;SDS011;5624;49.388;11.350;2024-02-23T09:58:13;2.50;;;1.30;;
11139;SDS011;5624;49.388;11.350;2024-02-23T10:00:42;3.93;;;1.43;;
11139;SDS011;5624;49.388;11.350;2024-02-23T10:03:08;1.57;;;1.10;;
11139;SDS011;5624;49.388;11.350;2024-02-23T10:05:34;2.13;;;1.17;;
11139;SDS011;5624;49.388;11.350;2024-02-23T10:07:59;4.73;;;1.67;;
11139;SDS011;5624;49.388;11.350;2024-02-23T10:10:34;2.10;;;1.03;;
11139;SDS011;5624;49.388;11.350;2024-02-23T10:12:59;2.80;;;1.33;;
11139;SDS011;5624;49.388;11.350;2024-02-23T10:15:26;3.70;;;1.30;;
11139;SDS011;5624;49.388;11.350;2024-02-23T10:17:54;2.33;;;0.97;;
11139;SDS011;5624;49.388;11.350;2024-02-23T10:20:19;3.70;;;1.63;;
11139;SDS011;5624;49.388;11.350;2024-02-23T10:22:45;3.17;;;1.50;;
11139;SDS011;5624;49.388;11.350;2024-02-23T10:25:11;2.37;;;1.30;;
11139;SDS011;5624;49.388;11.350;2024-02-23T10:27:37;1.77;;;1.20;;
11139;SDS011;5624;49.388;11.350;2024-02-23T10:30:02;1.83;;;1.20;;
11139;SDS011;5624;49.388;11.350;2024-02-23T10:32:29;2.27;;;1.43;;
11139;SDS011;5624;49.388;11.350;2024-02-23T10:34:55;3.70;;;1.77;;
11139;SDS011;5624;49.388;11.350;2024-02-23T10:37:28;3.07;;;1.80;;
11139;SDS011;5624;49.388;11.350;2024-02-23T10:39:56;2.83;;;1.70;;
11139;SDS011;5624;49.388;11.350;2024-02-23T10:42:25;1.63;;;1.53;;
11139;SDS011;5624;49.388;11.350;2024-02-23T10:44:56;2.87;;;1.43;;
11139;SDS011;5624;49.388;11.350;2024-02-23T10:47:26;2.10;;;1.23;;
11139;SDS011;5624;49.388;11.350;2024-02-23T10:49:52;3.00;;;1.30;;
11139;SDS011;5624;49.388;11.350;2024-02-23T10:52:18;2.63;;;1.10;;
11139;SDS011;5624;49.388;11.350;2024-02-23T10:54:46;3.43;;;1.30;;
11139;SDS011;5624;49.388;11.350;2024-02-23T10:57:13;1.67;;;1.27;;
11139;SDS011;5624;49.388;11.350;2024-02-23T10:59:39;1.40;;;1.20;;
11139;SDS011;5624;49.388;11.350;2024-02-23T11:02:05;3.53;;;1.20;;
11139;SDS011;5624;49.388;11.350;2024-02-23T11:04:32;2.97;;;1.47;;
11139;SDS011;5624;49.388;11.350;2024-02-23T11:06:59;6.27;;;2.10;;
11139;SDS011;5624;49.388;11.350;2024-02-23T11:09:29;3.70;;;1.80;;
11139;SDS011;5624;49.388;11.350;2024-02-23T11:11:58;4.43;;;1.93;;
11139;SDS011;5624;49.388;11.350;2024-02-23T11:14:34;3.10;;;1.70;;
11139;SDS011;5624;49.388;11.350;2024-02-23T11:17:03;2.60;;;1.80;;
11139;SDS011;5624;49.388;11.350;2024-02-23T11:19:39;3.10;;;1.80;;
11139;SDS011;5624;49.388;11.350;2024-02-23T11:22:05;1.60;;;1.50;;
11139;SDS011;5624;49.388;11.350;2024-02-23T11:24:34;2.70;;;1.60;;
11139;SDS011;5624;49.388;11.350;2024-02-23T11:27:12;2.60;;;1.30;;
11139;SDS011;5624;49.388;11.350;2024-02-23T11:29:39;1.47;;;1.10;;
11139;SDS011;5624;49.388;11.350;2024-02-23T11:32:12;3.53;;;2.30;;
11139;SDS011;5624;49.388;11.350;2024-02-23T11:34:38;5.23;;;2.70;;
11139;SDS011;5624;49.388;11.350;2024-02-23T11:37:10;4.67;;;2.20;;
11139;SDS011;5624;49.388;11.350;2024-02-23T11:39:37;2.90;;;1.57;;
11139;SDS011;5624;49.388;11.350;2024-02-23T11:42:04;10.60;;;6.47;;
11139;SDS011;5624;49.388;11.350;2024-02-23T11:44:31;5.90;;;3.30;;
11139;SDS011;5624;49.388;11.350;2024-02-23T11:46:56;3.10;;;2.40;;
11139;SDS011;5624;49.388;11.350;2024-02-23T11:49:27;3.90;;;1.60;;
11139;SDS011;5624;49.388;11.350;2024-02-23T11:51:54;3.03;;;1.30;;
11139;SDS011;5624;49.388;11.350;2024-02-23T11:54:20;2.40;;;1.60;;
11139;SDS011;5624;49.388;11.350;2024-02-23T11:56:47;3.83;;;3.00;;
11139;SDS011;5624;49.388;11.350;2024-02-23T11:59:14;2.90;;;1.50;;
11139;SDS011;5624;49.388;11.350;2024-02-23T12:01:40;6.87;;;4.70;;
11139;SDS011;5624;49.388;11.350;2024-02-23T12:04:07;10.60;;;5.70;;
11139;SDS011;5624;49.388;11.350;2024-02-23T12:06:33;1.43;;;1.30;;
11139;SDS011;5624;49.388;11.350;2024-02-23T12:08:59;2.70;;;1.67;;
11139;SDS011;5624;49.388;11.350;2024-02-23T12:11:25;2.73;;;1.60;;
11139;SDS011;5624;49.388;11.350;2024-02-23T12:13:52;2.37;;;1.23;;
11139;SDS011;5624;49.388;11.350;2024-02-23T12:16:18;2.43;;;1.10;;
11139;SDS011;5624;49.388;11.350;2024-02-23T12:18:45;4.87;;;1.50;;
11139;SDS011;5624;49.388;11.350;2024-02-23T12:21:18;1.20;;;1.10;;
11139;SDS011;5624;49.388;11.350;2024-02-23T12:23:44;2.87;;;1.00;;
11139;SDS011;5624;49.388;11.350;2024-02-23T12:26:12;2.53;;;1.10;;
11139;SDS011;5624;49.388;11.350;2024-02-23T12:28:38;1.87;;;1.17;;
11139;SDS011;5624;49.388;11.350;2024-02-23T12:31:07;3.10;;;1.50;;
11139;SDS011;5624;49.388;11.350;2024-02-23T12:33:34;3.23;;;1.37;;
11139;SDS011;5624;49.388;11.350;2024-02-23T12:36:00;2.80;;;1.63;;
11139;SDS011;5624;49.388;11.350;2024-02-23T12:38:27;2.97;;;1.70;;
11139;SDS011;5624;49.388;11.350;2024-02-23T12:40:53;2.43;;;1.63;;
11139;SDS011;5624;49.388;11.350;2024-02-23T12:43:19;3.57;;;1.83;;
11139;SDS011;5624;49.388;11.350;2024-02-23T12:45:47;4.37;;;2.20;;
11139;SDS011;5624;49.388;11.350;2024-02-23T12:48:16;2.17;;;1.30;;
11139;SDS011;5624;49.388;11.350;2024-02-23T12:50:42;2.90;;;1.30;;
11139;SDS011;5624;49.388;11.350;2024-02-23T12:53:08;2.57;;;1.40;;
11139;SDS011;5624;49.388;11.350;2024-02-23T12:55:34;2.70;;;1.20;;
11139;SDS011;5624;49.388;11.350;2024-02-23T12:58:01;1.67;;;1.30;;
11139;SDS011;5624;49.388;11.350;2024-02-23T13:00:27;2.33;;;1.30;;
11139;SDS011;5624;49.388;11.350;2024-02-23T13:02:53;1.77;;;1.30;;
11139;SDS011;5624;49.388;11.350;2024-02-23T13:05:19;1.50;;;1.30;;
11139;SDS011;5624;49.388;11.350;2024-02-23T13:07:45;2.60;;;1.60;;
11139;SDS011;5624;49.388;11.350;2024-02-23T13:10:11;2.60;;;1.60;;
11139;SDS011;5624;49.388;11.350;2024-02-23T13:12:36;2.87;;;1.30;;
11139;SDS011;5624;49.388;11.350;2024-02-23T13:15:02;3.30;;;1.40;;
11139;SDS011;5624;49.388;11.350;2024-02-23T13:17:27;2.60;;;1.30;;
11139;SDS011;5624;49.388;11.350;2024-02-23T13:19:53;2.40;;;1.30;;
11139;SDS011;5624;49.388;11.350;2024-02-23T13:22:19;2.53;;;1.60;;
11139;SDS011;5624;49.388;11.350;2024-02-23T13:24:44;2.30;;;1.40;;
11139;SDS011;5624;49.388;11.350;2024-02-23T13:27:10;2.50;;;1.37;;
11139;SDS011;5624;49.388;11.350;2024-02-23T13:29:35;2.03;;;1.27;;
11139;SDS011;5624;49.388;11.350;2024-02-23T13:32:01;2.30;;;1.70;;
11139;SDS011;5624;49.388;11.350;2024-02-23T13:34:27;2.63;;;1.40;;
11139;SDS011;5624;49.388;11.350;2024-02-23T13:36:52;2.90;;;1.33;;
11139;SDS011;5624;49.388;11.350;2024-02-23T13:39:18;2.47;;;1.53;;
11139;SDS011;5624;49.388;11.350;2024-02-23T13:41:44;2.20;;;1.50;;
11139;SDS011;5624;49.388;11.350;2024-02-23T13:44:09;1.00;;;1.00;;
11139;SDS011;5624;49.388;11.350;2024-02-23T13:46:35;2.53;;;1.30;;
11139;SDS011;5624;49.388;11.350;2024-02-23T13:49:04;3.53;;;1.37;;
11139;SDS011;5624;49.388;11.350;2024-02-23T13:51:31;4.47;;;1.63;;
11139;SDS011;5624;49.388;11.350;2024-02-23T13:53:57;3.17;;;2.10;;
11139;SDS011;5624;49.388;11.350;2024-02-23T13:56:23;3.87;;;1.53;;
11139;SDS011;5624;49.388;11.350;2024-02-23T13:58:48;2.03;;;1.60;;
11139;SDS011;5624;49.388;11.350;2024-02-23T14:01:14;2.47;;;1.63;;
11139;SDS011;5624;49.388;11.350;2024-02-23T14:03:40;3.43;;;1.70;;
11139;SDS011;5624;49.388;11.350;2024-02-23T14:06:05;2.73;;;1.60;;
11139;SDS011;5624;49.388;11.350;2024-02-23T14:08:31;2.53;;;1.40;;
11139;SDS011;5624;49.388;11.350;2024-02-23T14:10:59;2.53;;;1.30;;
11139;SDS011;5624;49.388;11.350;2024-02-23T14:13:25;1.77;;;1.20;;
11139;SDS011;5624;49.388;11.350;2024-02-23T14:15:50;2.40;;;1.53;;
11139;SDS011;5624;49.388;11.350;2024-02-23T14:18:16;3.57;;;1.30;;
11139;SDS011;5624;49.388;11.350;2024-02-23T14:20:42;3.77;;;2.00;;
11139;SDS011;5624;49.388;11.350;2024-02-23T14:23:07;3.90;;;3.00;;
11139;SDS011;5624;49.388;11.350;2024-02-23T14:25:33;2.87;;;1.97;;
11139;SDS011;5624;49.388;11.350;2024-02-23T14:27:58;3.63;;;1.80;;
11139;SDS011;5624;49.388;11.350;2024-02-23T14:30:24;3.07;;;1.60;;
11139;SDS011;5624;49.388;11.350;2024-02-23T14:32:50;3.33;;;1.40;;
11139;SDS011;5624;49.388;11.350;2024-02-23T14:35:15;4.30;;;1.33;;
11139;SDS011;5624;49.388;11.350;2024-02-23T14:37:41;2.83;;;1.40;;
11139;SDS011;5624;49.388;11.350;2024-02-23T14:40:06;3.43;;;1.70;;
11139;SDS011;5624;49.388;11.350;2024-02-23T14:42:32;2.30;;;1.47;;